createdAt,value
2019-01-03T00:00:30.390Z,19.23
2019-01-03T00:06:33.043Z,24.43
2019-01-03T00:18:39.811Z,19.80
2019-01-03T00:21:47.923Z,17.67
2019-01-03T00:24:31.342Z,20.03
2019-01-03T00:33:47.168Z,20.57
2019-01-03T00:36:55.249Z,18.30
2019-01-03T00:40:03.437Z,19.43
2019-01-03T00:43:11.511Z,19.47
2019-01-03T00:46:19.663Z,18.73
2019-01-03T00:49:27.909Z,23.63
2019-01-03T00:52:09.433Z,22.33
2019-01-03T00:55:17.513Z,22.03
2019-01-03T00:58:03.572Z,24.53
2019-01-03T01:04:00.345Z,34.90
2019-01-03T01:07:08.419Z,33.97
2019-01-03T01:10:09.580Z,42.87
2019-01-03T01:16:25.889Z,56.97
2019-01-03T01:19:07.529Z,54.57
2019-01-03T01:22:15.661Z,54.93
2019-01-03T01:25:16.815Z,54.03
2019-01-03T01:28:17.569Z,49.63
2019-01-03T01:31:18.403Z,38.70
2019-01-03T01:34:26.479Z,34.33
2019-01-03T01:37:34.665Z,32.63
2019-01-03T01:43:38.819Z,37.60
2019-01-03T01:46:24.596Z,35.03
2019-01-03T01:52:21.431Z,38.17
2019-01-03T01:55:29.544Z,38.93
2019-01-03T01:58:12.551Z,40.17
2019-01-03T02:04:22.484Z,38.20
2019-01-03T02:07:30.567Z,39.77
2019-01-03T02:10:13.984Z,36.43
2019-01-03T02:16:09.770Z,37.27
2019-01-03T02:19:17.850Z,36.20
2019-01-03T02:22:18.348Z,33.13
2019-01-03T02:25:26.466Z,34.73
2019-01-03T02:28:34.546Z,36.73
2019-01-03T02:31:35.214Z,33.40
2019-01-03T02:34:43.390Z,30.23
2019-01-03T02:37:44.679Z,30.83
2019-01-03T02:43:58.995Z,27.73
2019-01-03T02:50:02.797Z,31.97
2019-01-03T02:53:04.049Z,29.83
2019-01-03T02:56:04.839Z,29.20
2019-01-03T03:02:15.475Z,30.80
2019-01-03T03:08:31.324Z,29.77
2019-01-03T03:11:32.338Z,31.87
2019-01-03T03:14:40.425Z,28.00
2019-01-03T03:20:47.671Z,31.00
2019-01-03T03:23:48.218Z,33.60
2019-01-03T03:26:49.298Z,27.87
2019-01-03T03:29:57.377Z,27.03
2019-01-03T03:32:58.228Z,26.40
2019-01-03T03:38:53.500Z,30.13
2019-01-03T03:42:01.560Z,29.33
2019-01-03T03:45:02.518Z,33.37
2019-01-03T03:50:57.956Z,28.83
2019-01-03T03:54:06.107Z,26.87
2019-01-03T03:56:49.564Z,29.97
2019-01-03T03:59:57.665Z,27.60
2019-01-03T04:06:08.178Z,30.20
2019-01-03T04:15:09.648Z,36.70
2019-01-03T04:18:10.670Z,34.30
2019-01-03T04:21:11.450Z,27.50
2019-01-03T04:23:58.074Z,25.90
2019-01-03T04:27:06.145Z,25.57
2019-01-03T04:30:07.177Z,26.30
2019-01-03T04:33:07.962Z,25.70
2019-01-03T04:39:15.411Z,30.97
2019-01-03T04:42:16.476Z,24.10
2019-01-03T04:45:15.565Z,23.63
2019-01-03T04:48:16.682Z,21.63
2019-01-03T04:51:17.269Z,18.10
2019-01-03T04:54:17.940Z,19.83
2019-01-03T04:57:19.219Z,17.53
2019-01-03T05:00:18.243Z,19.53
2019-01-03T05:03:01.784Z,18.23
2019-01-03T05:06:09.863Z,19.40
2019-01-03T05:09:18.048Z,15.57
2019-01-03T05:12:26.131Z,18.30
2019-01-03T05:15:34.257Z,17.60
2019-01-03T05:18:50.884Z,16.57
2019-01-03T05:21:34.229Z,14.40
2019-01-03T05:27:29.700Z,16.23
2019-01-03T05:30:30.660Z,16.40
2019-01-03T05:33:38.745Z,22.07
2019-01-03T05:36:46.822Z,42.93
2019-01-03T05:42:50.749Z,55.93
2019-01-03T05:45:51.432Z,39.63
2019-01-03T05:48:51.918Z,31.40
2019-01-03T05:51:52.683Z,27.63
2019-01-03T05:54:53.492Z,36.37
2019-01-03T05:57:36.848Z,36.03
2019-01-03T06:06:05.042Z,41.77
2019-01-03T06:09:13.120Z,35.37
2019-01-03T06:12:13.720Z,37.13
2019-01-03T06:15:14.628Z,28.93
2019-01-03T06:18:15.365Z,21.20
2019-01-03T06:24:25.364Z,26.03
2019-01-03T06:27:33.453Z,23.90
2019-01-03T06:33:35.865Z,29.87
2019-01-03T06:36:19.238Z,23.77
2019-01-03T06:39:27.326Z,27.03
2019-01-03T06:45:34.712Z,25.33
2019-01-03T06:48:21.583Z,21.70
2019-01-03T06:51:29.672Z,22.73
2019-01-03T06:54:37.748Z,17.53
2019-01-03T06:57:45.851Z,23.10
2019-01-03T07:00:53.939Z,20.27
2019-01-03T07:04:02.028Z,17.90
2019-01-03T07:10:09.224Z,19.13
2019-01-03T07:12:52.676Z,19.10
2019-01-03T07:15:53.789Z,19.10
2019-01-03T07:19:02.049Z,19.47
2019-01-03T07:22:10.128Z,17.77
2019-01-03T07:30:45.555Z,16.83
2019-01-03T07:33:28.969Z,18.53
2019-01-03T07:39:29.904Z,17.47
2019-01-03T07:42:16.470Z,21.57
2019-01-03T07:45:17.068Z,19.83
2019-01-03T07:48:25.153Z,21.83
2019-01-03T07:51:25.856Z,23.03
2019-01-03T07:54:33.939Z,20.17
2019-01-03T07:57:17.195Z,21.73
2019-01-03T08:00:46.022Z,19.43
2019-01-03T08:03:29.324Z,23.63
2019-01-03T08:09:22.241Z,28.37
2019-01-03T08:12:30.323Z,24.60
2019-01-03T08:15:14.051Z,25.93
2019-01-03T08:17:59.934Z,27.10
2019-01-03T08:21:08.015Z,26.57
2019-01-03T08:26:49.817Z,27.70
2019-01-03T08:29:57.900Z,26.57
2019-01-03T08:32:59.022Z,25.97
2019-01-03T08:38:51.769Z,24.93
2019-01-03T08:41:59.892Z,27.97
2019-01-03T08:44:46.285Z,24.83
2019-01-03T08:47:54.468Z,23.83
2019-01-03T08:50:55.158Z,31.90
2019-01-03T08:54:03.242Z,25.73
2019-01-03T08:57:02.416Z,18.73
2019-01-03T09:03:12.569Z,21.23
2019-01-03T09:06:20.742Z,20.60
2019-01-03T09:09:04.087Z,27.80
2019-01-03T09:12:12.161Z,25.53
2019-01-03T09:15:13.290Z,29.90
2019-01-03T09:21:09.155Z,24.07
2019-01-03T09:24:17.231Z,23.70
2019-01-03T09:27:18.629Z,22.73
2019-01-03T09:33:15.934Z,19.97
2019-01-03T09:36:24.013Z,18.97
2019-01-03T09:39:11.419Z,19.20
2019-01-03T09:42:19.495Z,20.73
2019-01-03T09:45:08.851Z,20.97
2019-01-03T09:47:58.032Z,17.73
2019-01-03T09:51:06.109Z,22.43
2019-01-03T09:53:55.368Z,19.80
2019-01-03T09:56:44.548Z,19.60
2019-01-03T10:02:21.034Z,17.40
2019-01-03T10:05:10.223Z,21.77
2019-01-03T10:07:59.407Z,19.53
2019-01-03T10:10:48.586Z,18.30
2019-01-03T10:13:37.770Z,21.93
2019-01-03T10:16:45.846Z,18.70
2019-01-03T10:19:27.725Z,19.03
2019-01-03T10:22:09.419Z,21.17
2019-01-03T10:24:58.619Z,19.13
2019-01-03T10:27:40.386Z,20.10
2019-01-03T10:30:29.610Z,19.47
2019-01-03T10:33:11.086Z,18.83
2019-01-03T10:36:00.303Z,19.80
2019-01-03T10:38:42.594Z,19.47
2019-01-03T10:41:24.595Z,17.93
2019-01-03T10:44:13.789Z,22.60
2019-01-03T10:47:02.976Z,17.40
2019-01-03T10:53:07.089Z,18.17
2019-01-03T10:55:49.378Z,19.63
2019-01-03T10:58:38.572Z,15.80
2019-01-03T11:01:27.749Z,16.63
2019-01-03T11:04:16.816Z,17.50
2019-01-03T11:09:53.069Z,13.03
2019-01-03T11:12:42.311Z,15.40
2019-01-03T11:15:31.493Z,17.10
2019-01-03T11:21:34.232Z,14.33
2019-01-03T11:24:16.401Z,14.23
2019-01-03T11:27:05.616Z,12.37
2019-01-03T11:29:47.067Z,11.43
2019-01-03T11:32:36.314Z,18.40
2019-01-03T11:35:25.592Z,15.43
2019-01-03T11:38:14.888Z,16.23
2019-01-03T11:40:56.612Z,11.83
2019-01-03T11:43:45.717Z,12.20
2019-01-03T11:46:27.785Z,12.13
2019-01-03T11:49:17.019Z,13.80
2019-01-03T11:51:59.064Z,10.33
2019-01-03T11:54:48.234Z,11.87
2019-01-03T11:57:30.204Z,10.00
2019-01-03T12:00:38.302Z,13.13
2019-01-03T12:03:20.676Z,13.30
2019-01-03T12:09:01.373Z,10.90
2019-01-03T12:11:50.689Z,9.33
2019-01-03T12:14:39.870Z,8.90
2019-01-03T12:17:40.217Z,8.33
2019-01-03T12:20:29.442Z,14.50
2019-01-03T12:23:11.047Z,9.83
2019-01-03T12:26:00.330Z,9.67
2019-01-03T12:28:49.708Z,10.27
2019-01-03T12:34:39.492Z,10.50
2019-01-03T12:37:28.754Z,9.80
2019-01-03T12:40:18.032Z,10.17
2019-01-03T12:43:00.127Z,9.03
2019-01-03T12:48:45.486Z,11.60
2019-01-03T12:51:32.599Z,8.57
2019-01-03T12:54:21.782Z,10.73
2019-01-03T13:00:13.534Z,11.27
2019-01-03T13:06:03.543Z,8.87
2019-01-03T13:08:53.048Z,11.90
2019-01-03T13:14:48.343Z,11.90
2019-01-03T13:17:37.789Z,7.73
2019-01-03T13:23:14.494Z,10.13
2019-01-03T13:26:04.053Z,12.70
2019-01-03T13:28:53.435Z,10.53
2019-01-03T13:34:38.579Z,10.00
2019-01-03T13:37:20.197Z,10.03
2019-01-03T13:40:09.371Z,7.97
2019-01-03T13:42:51.259Z,8.70
2019-01-03T13:45:40.565Z,10.77
2019-01-03T13:48:22.234Z,9.57
2019-01-03T13:51:11.458Z,10.27
2019-01-03T13:53:53.536Z,7.80
2019-01-03T13:56:42.830Z,7.60
2019-01-03T13:59:22.890Z,13.07
2019-01-03T14:02:12.254Z,8.13
2019-01-03T14:04:54.049Z,9.73
2019-01-03T14:07:43.333Z,7.20
2019-01-03T14:10:25.558Z,10.77
2019-01-03T14:13:26.937Z,9.67
2019-01-03T14:16:16.284Z,8.93
2019-01-03T14:19:05.496Z,10.40
2019-01-03T14:21:54.749Z,8.97
2019-01-03T14:24:36.991Z,10.33
2019-01-03T14:27:17.065Z,7.40
2019-01-03T14:29:59.408Z,7.40
2019-01-03T14:32:48.663Z,11.33
2019-01-03T14:35:49.188Z,8.83
2019-01-03T14:38:38.431Z,10.83
2019-01-03T14:41:27.719Z,10.03
2019-01-03T14:44:09.448Z,6.90
2019-01-03T14:46:58.795Z,8.77
2019-01-03T14:49:40.236Z,12.53
2019-01-03T14:52:29.683Z,12.30
2019-01-03T14:55:11.262Z,10.23
2019-01-03T14:58:00.476Z,6.33
2019-01-03T15:00:42.096Z,6.97
2019-01-03T15:03:31.423Z,7.60
2019-01-03T15:06:20.655Z,12.07
2019-01-03T15:09:09.827Z,11.13
2019-01-03T15:11:59.008Z,8.33
2019-01-03T15:14:48.194Z,6.77
2019-01-03T15:17:37.468Z,9.50
2019-01-03T15:20:19.333Z,8.23
2019-01-03T15:23:08.557Z,7.70
2019-01-03T15:25:50.155Z,9.37
2019-01-03T15:28:39.359Z,7.70
2019-01-03T15:31:20.828Z,9.37
2019-01-03T15:37:10.339Z,11.03
2019-01-03T15:39:52.109Z,6.97
2019-01-03T15:42:41.320Z,8.83
2019-01-03T15:45:30.613Z,19.80
2019-01-03T15:48:19.894Z,17.43
2019-01-03T15:51:01.449Z,8.13
2019-01-03T15:53:50.772Z,10.90
2019-01-03T15:56:32.745Z,10.47
2019-01-03T15:59:22.037Z,10.97
2019-01-03T16:02:04.326Z,12.07
2019-01-03T16:04:53.536Z,12.97
2019-01-03T16:07:42.815Z,8.77
2019-01-03T16:16:34.368Z,11.87
2019-01-03T16:25:07.191Z,9.10
2019-01-03T16:27:48.655Z,8.73
2019-01-03T16:30:37.962Z,11.17
2019-01-03T16:33:19.374Z,11.87
2019-01-03T16:36:08.547Z,10.87
2019-01-03T16:41:37.700Z,10.37
2019-01-03T16:44:26.983Z,9.20
2019-01-03T16:47:16.371Z,12.33
2019-01-03T16:50:26.501Z,9.97
2019-01-03T16:53:08.936Z,12.10
2019-01-03T16:55:58.164Z,9.10
2019-01-03T16:58:40.368Z,8.97
2019-01-03T17:01:29.543Z,15.53
2019-01-03T17:04:11.434Z,11.43
2019-01-03T17:07:00.631Z,10.93
2019-01-03T17:09:49.811Z,11.40
2019-01-03T17:12:39.293Z,12.07
2019-01-03T17:15:28.387Z,12.77
2019-01-03T17:18:17.471Z,12.07
2019-01-03T17:21:06.604Z,15.10
2019-01-03T17:23:48.709Z,18.43
2019-01-03T17:29:30.105Z,18.50
2019-01-03T17:32:19.278Z,15.70
2019-01-03T17:34:59.381Z,16.77
2019-01-03T17:37:48.475Z,15.50
2019-01-03T17:40:30.930Z,17.60
2019-01-03T17:43:20.132Z,19.85
2019-01-03T17:46:02.232Z,19.53
2019-01-03T17:51:58.020Z,14.17
2019-01-03T17:54:47.287Z,12.63
2019-01-03T17:57:36.473Z,17.10
2019-01-03T18:00:25.591Z,15.87
2019-01-03T18:06:14.425Z,14.53
2019-01-03T18:08:56.628Z,16.13
2019-01-03T18:11:45.910Z,15.37
2019-01-03T18:14:27.510Z,16.83
2019-01-03T18:17:16.689Z,20.67
2019-01-03T18:19:56.679Z,20.90
2019-01-03T18:23:04.835Z,19.17
2019-01-03T18:25:46.588Z,19.60
2019-01-03T18:28:54.760Z,24.23
2019-01-03T18:31:36.738Z,40.37
2019-01-03T18:34:44.889Z,27.13
2019-01-03T18:37:27.011Z,37.97
2019-01-03T18:40:35.178Z,41.50
2019-01-03T18:43:16.801Z,46.80
2019-01-03T18:46:06.061Z,46.37
2019-01-03T18:48:49.638Z,58.67
2019-01-03T18:51:38.913Z,54.03
2019-01-03T18:54:20.445Z,42.73
2019-01-03T18:57:09.607Z,44.73
2019-01-03T18:59:58.865Z,38.00
2019-01-03T19:03:07.060Z,37.53
2019-01-03T19:05:49.018Z,42.40
2019-01-03T19:11:38.513Z,41.93
2019-01-03T19:17:28.125Z,44.37
2019-01-03T19:20:17.193Z,44.97
2019-01-03T19:22:59.446Z,42.70
2019-01-03T19:28:42.950Z,42.43
2019-01-03T19:31:25.070Z,43.00
2019-01-03T19:34:14.316Z,40.63
2019-01-03T19:37:03.494Z,39.30
2019-01-03T19:39:52.676Z,43.07
2019-01-03T19:42:53.490Z,41.80
2019-01-03T19:46:01.547Z,43.80
2019-01-03T19:48:43.722Z,39.53
2019-01-03T19:51:32.997Z,38.30
2019-01-03T19:54:22.175Z,41.00
2019-01-03T19:57:11.555Z,36.83
2019-01-03T20:00:12.160Z,39.80
2019-01-03T20:03:01.306Z,41.97
2019-01-03T20:05:50.599Z,52.20
2019-01-03T20:11:42.316Z,78.60
2019-01-03T20:14:31.623Z,71.87
2019-01-03T20:20:15.083Z,75.00
2019-01-03T20:26:19.295Z,84.90
2019-01-03T20:29:01.523Z,90.00
2019-01-03T20:31:43.620Z,94.57
2019-01-03T20:34:43.537Z,99.23
2019-01-03T20:43:49.012Z,109.90
2019-01-03T20:49:43.864Z,139.90
2019-01-03T20:52:52.339Z,146.83
2019-01-03T20:55:34.723Z,158.87
2019-01-03T20:58:24.194Z,153.70
2019-01-03T21:01:32.711Z,168.50
2019-01-03T21:04:14.667Z,185.17
2019-01-03T21:13:07.571Z,176.10
2019-01-03T21:22:02.962Z,136.17
2019-01-03T21:30:36.601Z,121.17
2019-01-03T21:33:18.273Z,104.23
2019-01-03T21:36:07.636Z,107.20
2019-01-03T21:38:56.708Z,110.40
2019-01-03T21:41:38.917Z,105.30
2019-01-03T21:44:47.522Z,99.63
2019-01-03T21:47:56.058Z,237.70
2019-01-03T21:50:38.527Z,119.67
2019-01-03T21:53:27.686Z,106.43
2019-01-03T21:56:09.629Z,107.07
2019-01-03T21:58:58.985Z,104.63
2019-01-03T22:01:48.348Z,101.47
2019-01-03T22:04:37.591Z,98.40
2019-01-03T22:07:26.808Z,100.10
2019-01-03T22:10:09.302Z,98.90
2019-01-03T22:15:54.154Z,96.93
2019-01-03T22:18:35.978Z,104.90
2019-01-03T22:21:25.263Z,122.50
2019-01-03T22:24:14.532Z,119.20
2019-01-03T22:27:03.703Z,98.43
2019-01-03T22:29:45.506Z,99.03
2019-01-03T22:32:34.693Z,99.47
2019-01-03T22:35:24.218Z,98.97
2019-01-03T22:41:15.328Z,95.10
2019-01-03T22:44:04.589Z,108.97
2019-01-03T22:46:54.144Z,103.90
2019-01-03T22:52:38.325Z,101.20
2019-01-03T22:55:20.585Z,109.63
2019-01-03T22:58:09.828Z,110.07
2019-01-03T23:00:51.883Z,118.10
2019-01-03T23:03:41.090Z,114.17
2019-01-03T23:06:23.334Z,130.43
2019-01-03T23:09:12.671Z,135.03
2019-01-03T23:12:02.048Z,128.97
2019-01-03T23:15:10.142Z,125.67
2019-01-03T23:20:53.763Z,134.93
2019-01-03T23:23:35.715Z,119.77
2019-01-03T23:26:25.025Z,126.33
2019-01-03T23:29:05.173Z,133.83
2019-01-03T23:31:54.570Z,151.40
2019-01-03T23:34:36.216Z,216.70
2019-01-03T23:37:17.910Z,147.40
2019-01-03T23:40:18.487Z,125.17
2019-01-03T23:43:08.003Z,127.00
2019-01-03T23:45:57.231Z,111.57
2019-01-03T23:51:49.008Z,107.23
2019-01-03T23:54:38.345Z,111.57
2019-01-03T23:57:27.521Z,110.87
